Time;durP1;ratioP1;P1;durP2;ratioP2;P2;SDS_P1;SDS_P2;PMS_P1;PMS_P2;Temp;Humidity;BMP_temperature;BMP_pressure;BME280_temperature;BME280_humidity;BME280_pressure;Samples;Min_cycle;Max_cycle;Signal;HPM_P1;HPM_P2
2022/07/29 00:00:15;;;;;;;6.03;5.63;;;22.10;65.40;;;;;;20775;6837;117532;-81
2022/07/29 00:02:42;;;;;;;5.73;5.43;;;22.10;64.80;;;;;;20788;6837;117094;-81
2022/07/29 00:05:08;;;;;;;5.50;5.20;;;22.00;64.70;;;;;;20492;6837;313379;-81
2022/07/29 00:07:36;;;;;;;5.57;5.27;;;22.30;63.40;;;;;;20738;6837;117692;-81
2022/07/29 00:10:01;;;;;;;6.30;5.90;;;22.40;63.10;;;;;;20548;6837;337151;-82
2022/07/29 00:12:27;;;;;;;6.27;5.77;;;22.60;62.50;;;;;;20527;6837;308028;-81
2022/07/29 00:14:53;;;;;;;5.87;5.57;;;22.90;61.50;;;;;;20762;6837;117163;-82
2022/07/29 00:17:18;;;;;;;6.17;5.80;;;22.80;61.70;;;;;;20742;6837;117489;-81
2022/07/29 00:19:44;;;;;;;5.90;5.50;;;22.60;62.20;;;;;;20784;6837;117341;-81
2022/07/29 00:22:10;;;;;;;6.30;5.93;;;22.40;63.40;;;;;;20570;6835;282192;-81
2022/07/29 00:24:35;;;;;;;5.73;5.23;;;22.40;63.40;;;;;;20782;6836;119248;-82
2022/07/29 00:27:01;;;;;;;6.30;6.00;;;22.40;63.20;;;;;;20544;6836;336702;-82
2022/07/29 00:29:27;;;;;;;5.53;5.23;;;22.50;63.10;;;;;;20785;6836;117715;-82
2022/07/29 00:31:52;;;;;;;5.30;5.00;;;22.50;62.50;;;;;;20780;6836;117577;-81
2022/07/29 00:37:03;;;;;;;5.30;5.00;;;22.00;63.30;;;;;;20760;6837;127082;-81
2022/07/29 00:39:29;;;;;;;5.20;4.80;;;21.80;63.80;;;;;;20782;6837;116706;-81
2022/07/29 00:41:56;;;;;;;5.63;5.30;;;21.60;64.00;;;;;;20567;6837;283099;-81
2022/07/29 00:44:21;;;;;;;5.60;5.30;;;21.90;63.10;;;;;;20770;6837;117237;-81
2022/07/29 00:46:47;;;;;;;5.03;4.73;;;21.90;63.00;;;;;;20779;6837;117700;-81
2022/07/29 00:49:12;;;;;;;5.55;5.15;;;21.70;63.40;;;;;;20543;6837;303751;-81
2022/07/29 00:51:39;;;;;;;4.97;4.57;;;21.90;62.80;;;;;;20775;6837;116737;-81
2022/07/29 00:54:06;;;;;;;6.10;5.70;;;21.90;63.50;;;;;;20567;6837;308449;-81
2022/07/29 00:56:31;;;;;;;6.18;5.82;;;22.10;63.10;;;;;;20562;6837;279065;-81
2022/07/29 00:58:57;;;;;;;5.78;5.40;;;22.40;62.10;;;;;;20723;6837;119564;-82
2022/07/29 01:01:22;;;;;;;5.50;5.20;;;22.30;62.10;;;;;;20757;6837;117417;-81
2022/07/29 01:03:48;;;;;;;6.07;5.67;;;22.00;62.40;;;;;;20549;6837;308504;-81
2022/07/29 01:06:13;;;;;;;4.83;4.53;;;22.10;62.50;;;;;;20752;6837;118436;-81
2022/07/29 01:08:40;;;;;;;5.70;5.30;;;22.00;63.50;;;;;;20545;6837;290563;-81
2022/07/29 01:11:05;;;;;;;5.65;5.30;;;22.10;62.00;;;;;;20507;6837;282091;-81
2022/07/29 01:13:30;;;;;;;5.47;5.18;;;22.40;61.20;;;;;;20775;6837;117933;-81
2022/07/29 01:15:59;;;;;;;5.10;4.80;;;22.30;61.50;;;;;;20802;6837;116546;-81
2022/07/29 01:18:35;;;;;;;5.00;4.63;;;22.10;62.30;;;;;;20762;6837;120632;-82
2022/07/29 01:21:13;;;;;;;5.13;4.80;;;21.60;63.40;;;;;;20755;6837;121612;-82
2022/07/29 01:24:05;;;;;;;5.40;5.10;;;21.60;63.40;;;;;;20760;6837;118508;-81
2022/07/29 01:26:44;;;;;;;5.15;4.85;;;21.40;63.80;;;;;;20561;6837;278969;-81
2022/07/29 01:29:32;;;;;;;5.30;4.90;;;21.80;63.20;;;;;;20517;6837;306548;-81
2022/07/29 01:32:04;;;;;;;5.63;5.23;;;22.20;62.30;;;;;;20546;6837;307677;-81
2022/07/29 01:34:43;;;;;;;5.80;5.40;;;22.50;61.60;;;;;;20559;6835;307154;-81
2022/07/29 01:37:17;;;;;;;5.10;4.60;;;22.60;60.20;;;;;;20482;6836;277170;-81
2022/07/29 01:39:43;;;;;;;5.40;5.00;;;22.80;59.80;;;;;;20576;6836;278949;-81
2022/07/29 01:42:15;;;;;;;5.30;4.90;;;22.90;59.10;;;;;;20780;6836;118809;-81
2022/07/29 01:44:50;;;;;;;5.20;4.90;;;22.60;59.80;;;;;;20556;6837;308373;-81
2022/07/29 01:47:16;;;;;;;4.97;4.60;;;22.60;59.40;;;;;;20772;6837;117557;-82
2022/07/29 01:49:41;;;;;;;5.33;4.93;;;22.40;60.10;;;;;;20774;6837;117925;-81
2022/07/29 01:52:07;;;;;;;5.10;4.63;;;22.00;60.90;;;;;;20770;6837;68374;-82
2022/07/29 01:54:45;;;;;;;5.20;4.80;;;21.80;61.70;;;;;;20780;6837;117143;-81
2022/07/29 01:57:11;;;;;;;5.93;5.53;;;21.50;62.20;;;;;;20525;6837;298571;-81
2022/07/29 01:59:38;;;;;;;5.60;5.30;;;21.80;62.50;;;;;;20581;6837;307628;-81
2022/07/29 02:02:04;;;;;;;6.20;5.80;;;22.40;60.60;;;;;;20583;6837;288707;-82
2022/07/29 02:04:30;;;;;;;6.20;5.80;;;22.30;60.40;;;;;;20798;6837;118160;-81
2022/07/29 02:06:55;;;;;;;5.77;5.37;;;22.20;60.70;;;;;;20777;6837;118363;-81
2022/07/29 02:09:21;;;;;;;5.05;4.75;;;21.90;61.60;;;;;;20793;6837;119372;-83
2022/07/29 02:11:50;;;;;;;5.60;5.20;;;21.70;62.50;;;;;;20598;6837;279195;-81
2022/07/29 02:14:15;;;;;;;6.10;5.70;;;21.80;62.20;;;;;;20577;6837;307628;-81
2022/07/29 02:16:40;;;;;;;5.80;5.40;;;22.10;61.10;;;;;;20575;6837;315002;-81
2022/07/29 02:19:06;;;;;;;5.27;4.97;;;22.40;60.50;;;;;;20764;6837;117998;-82
2022/07/29 02:21:32;;;;;;;5.78;5.37;;;22.30;60.80;;;;;;20578;6837;281398;-80
2022/07/29 02:23:57;;;;;;;6.13;5.63;;;22.30;60.10;;;;;;20576;6837;306145;-81
2022/07/29 02:26:23;;;;;;;5.70;5.30;;;22.30;59.80;;;;;;20796;6837;116911;-81
2022/07/29 02:28:49;;;;;;;5.50;5.03;;;22.30;59.80;;;;;;20766;6837;144887;-82
2022/07/29 02:31:15;;;;;;;5.90;5.50;;;22.00;60.60;;;;;;20589;6837;306927;-81
2022/07/29 02:33:40;;;;;;;5.00;4.70;;;22.10;60.30;;;;;;20796;6837;117820;-81
2022/07/29 02:36:06;;;;;;;5.23;4.97;;;22.00;60.50;;;;;;20801;6837;120673;-81
2022/07/29 02:41:17;;;;;;;5.93;5.57;;;21.90;60.40;;;;;;20588;6837;312268;-81
2022/07/29 02:43:42;;;;;;;5.90;5.47;;;22.20;59.40;;;;;;20589;6837;279367;-81
2022/07/29 02:46:09;;;;;;;5.30;5.10;;;22.30;59.30;;;;;;20779;6835;118798;-82
2022/07/29 02:48:34;;;;;;;6.27;5.73;;;22.20;59.20;;;;;;20767;6836;116204;-81
2022/07/29 02:51:06;;;;;;;5.43;4.87;;;21.90;60.00;;;;;;20747;6836;121577;-82
2022/07/29 02:53:31;;;;;;;5.50;5.20;;;21.60;60.80;;;;;;20736;6836;117036;-82
2022/07/29 02:56:06;;;;;;;5.37;5.10;;;21.40;61.40;;;;;;20758;6837;117477;-82
2022/07/29 02:58:37;;;;;;;5.37;5.13;;;21.30;61.80;;;;;;20297;6837;121168;-82
2022/07/29 03:01:10;;;;;;;5.90;5.60;;;21.50;61.80;;;;;;20515;6837;294047;-82
2022/07/29 03:03:36;;;;;;;5.60;5.30;;;21.50;61.80;;;;;;20557;6837;338758;-82
2022/07/29 03:06:02;;;;;;;5.50;5.20;;;21.90;60.70;;;;;;20672;6837;117745;-84
2022/07/29 03:08:28;;;;;;;5.80;5.50;;;21.70;62.10;;;;;;20732;6837;116398;-82
2022/07/29 03:10:53;;;;;;;6.17;5.77;;;21.60;61.20;;;;;;20707;6837;118077;-85
2022/07/29 03:13:19;;;;;;;6.23;5.40;;;21.50;61.80;;;;;;20792;6837;117321;-81
2022/07/29 03:15:46;;;;;;;6.20;5.80;;;21.30;62.20;;;;;;20797;6837;116276;-81
2022/07/29 03:18:11;;;;;;;6.50;6.10;;;21.20;62.50;;;;;;20590;6837;303669;-81
2022/07/29 03:20:37;;;;;;;6.63;6.23;;;21.50;61.50;;;;;;20808;6837;116767;-81
2022/07/29 03:23:04;;;;;;;6.50;6.20;;;21.50;61.40;;;;;;20563;6837;277057;-81
2022/07/29 03:25:29;;;;;;;6.50;6.10;;;21.80;61.00;;;;;;20598;6837;278965;-81
2022/07/29 03:27:56;;;;;;;6.30;6.00;;;22.10;60.20;;;;;;20816;6837;117658;-81
2022/07/29 03:30:20;;;;;;;6.28;5.82;;;22.00;60.30;;;;;;20606;6837;278808;-82
2022/07/29 03:32:46;;;;;;;6.30;5.80;;;22.10;60.00;;;;;;20605;6837;340038;-82
2022/07/29 03:35:12;;;;;;;5.20;4.90;;;22.30;59.00;;;;;;20783;6837;122556;-82
2022/07/29 03:37:37;;;;;;;5.60;5.30;;;22.20;59.40;;;;;;20773;6837;121255;-83
2022/07/29 03:40:03;;;;;;;5.77;5.47;;;21.90;60.10;;;;;;20579;6837;278579;-82
2022/07/29 03:42:28;;;;;;;4.70;4.50;;;22.00;59.80;;;;;;20782;6837;116673;-81
2022/07/29 03:44:54;;;;;;;5.60;5.30;;;21.90;60.00;;;;;;20556;6837;304307;-81
2022/07/29 03:47:22;;;;;;;5.77;5.30;;;22.00;59.80;;;;;;20735;6837;121002;-81
2022/07/29 03:49:46;;;;;;;6.17;5.77;;;21.90;60.00;;;;;;20812;6837;68239;-83
2022/07/29 03:52:12;;;;;;;5.27;4.97;;;21.60;60.50;;;;;;20791;6837;116299;-81
2022/07/29 03:54:38;;;;;;;5.47;5.23;;;21.30;62.20;;;;;;20792;6837;116679;-82
2022/07/29 03:57:04;;;;;;;5.68;5.30;;;21.30;61.70;;;;;;20569;6835;315077;-83
2022/07/29 03:59:29;;;;;;;5.37;5.07;;;21.40;61.30;;;;;;20574;6836;342058;-82
2022/07/29 04:01:55;;;;;;;5.27;4.87;;;21.80;60.50;;;;;;20618;6836;116628;-82
2022/07/29 04:04:23;;;;;;;5.32;5.03;;;21.80;60.60;;;;;;20626;6836;117465;-82
2022/07/29 04:06:48;;;;;;;5.50;5.20;;;21.50;61.20;;;;;;20579;6837;307183;-81
2022/07/29 04:09:14;;;;;;;5.15;4.95;;;21.70;60.00;;;;;;20584;6837;308069;-82
2022/07/29 04:11:39;;;;;;;5.37;5.00;;;22.00;59.20;;;;;;20577;6837;308095;-82
2022/07/29 04:14:06;;;;;;;5.03;4.83;;;22.20;58.30;;;;;;20768;6837;117856;-81
2022/07/29 04:16:31;;;;;;;4.93;4.62;;;22.10;58.90;;;;;;20580;6837;311680;-82
2022/07/29 04:18:57;;;;;;;4.60;4.40;;;22.20;58.40;;;;;;20779;6837;117224;-82
2022/07/29 04:21:24;;;;;;;5.13;4.80;;;22.10;58.90;;;;;;20793;6837;116582;-81
2022/07/29 04:23:49;;;;;;;5.53;5.23;;;21.90;59.50;;;;;;20584;6837;308553;-82
2022/07/29 04:26:15;;;;;;;5.70;5.40;;;22.00;58.90;;;;;;20576;6837;277687;-82
2022/07/29 04:28:42;;;;;;;5.83;5.43;;;22.50;57.50;;;;;;20579;6837;282619;-82
2022/07/29 04:31:07;;;;;;;5.43;5.03;;;22.50;57.50;;;;;;20770;6837;117602;-81
2022/07/29 04:33:32;;;;;;;6.18;5.68;;;22.30;57.90;;;;;;20585;6837;277113;-81
2022/07/29 04:35:58;;;;;;;6.20;5.80;;;22.30;57.80;;;;;;20576;6837;297985;-81
2022/07/29 04:38:24;;;;;;;5.72;5.43;;;22.50;57.00;;;;;;20587;6837;306564;-81
2022/07/29 04:40:50;;;;;;;4.83;4.60;;;22.50;57.00;;;;;;20780;6837;117754;-84
2022/07/29 04:43:15;;;;;;;5.50;5.20;;;22.30;57.60;;;;;;20592;6837;282426;-82
2022/07/29 04:45:41;;;;;;;5.45;5.25;;;22.30;57.60;;;;;;20586;6837;279155;-81
2022/07/29 04:48:07;;;;;;;5.55;5.25;;;22.40;57.30;;;;;;20573;6837;308960;-82
2022/07/29 04:50:34;;;;;;;5.50;5.10;;;22.60;57.00;;;;;;20580;6837;311457;-81
2022/07/29 04:52:59;;;;;;;4.57;4.37;;;22.60;56.80;;;;;;20778;6837;120653;-81
2022/07/29 04:55:25;;;;;;;5.18;4.80;;;22.40;57.50;;;;;;20592;6837;279117;-82
2022/07/29 04:57:50;;;;;;;4.83;4.63;;;22.30;57.40;;;;;;20563;6837;278079;-83
2022/07/29 05:00:18;;;;;;;4.80;4.60;;;22.70;56.60;;;;;;20554;6837;319589;-83
2022/07/29 05:02:43;;;;;;;4.77;4.37;;;22.70;56.70;;;;;;20759;6837;117451;-86
2022/07/29 05:05:11;;;;;;;4.60;4.30;;;22.50;57.10;;;;;;20538;6837;278161;-84
2022/07/29 05:07:38;;;;;;;4.60;4.30;;;22.50;57.10;;;;;;20562;6835;307120;-82
2022/07/29 05:10:03;;;;;;;4.20;4.00;;;22.70;56.50;;;;;;20754;6836;121091;-82
2022/07/29 05:12:29;;;;;;;4.50;4.30;;;22.50;57.10;;;;;;20560;6836;282496;-82
2022/07/29 05:14:55;;;;;;;4.33;3.97;;;22.60;57.50;;;;;;20748;6836;142601;-82
2022/07/29 05:17:23;;;;;;;3.80;3.60;;;22.50;58.00;;;;;;20767;6836;117480;-83
2022/07/29 05:19:51;;;;;;;3.67;3.40;;;22.30;58.40;;;;;;20541;6837;282721;-82
2022/07/29 05:22:14;;;;;;;3.50;3.30;;;22.50;57.30;;;;;;20553;6837;336962;-83
2022/07/29 05:24:40;;;;;;;3.80;3.50;;;22.80;56.40;;;;;;20552;6837;307379;-82
2022/07/29 05:27:05;;;;;;;3.53;3.33;;;23.00;56.00;;;;;;20750;6837;117396;-82
2022/07/29 05:29:32;;;;;;;3.30;3.10;;;22.90;56.50;;;;;;20562;6837;293069;-82
2022/07/29 05:31:58;;;;;;;3.47;3.27;;;23.00;56.10;;;;;;20570;6837;286442;-82
2022/07/29 05:34:27;;;;;;;3.60;3.40;;;23.50;55.90;;;;;;20565;6837;278654;-82
2022/07/29 05:36:53;;;;;;;3.10;3.00;;;23.40;56.80;;;;;;20737;6837;117340;-82
2022/07/29 05:39:19;;;;;;;4.23;2.90;;;23.40;56.80;;;;;;20771;6837;117449;-83
2022/07/29 05:41:44;;;;;;;3.30;3.20;;;23.10;57.50;;;;;;20553;6837;323550;-83
2022/07/29 05:44:13;;;;;;;3.37;3.20;;;23.30;57.50;;;;;;20547;6837;306863;-82
2022/07/29 05:46:36;;;;;;;3.00;2.80;;;23.60;58.10;;;;;;20537;6837;308226;-82
2022/07/29 05:49:02;;;;;;;2.80;2.70;;;23.90;56.30;;;;;;20776;6837;117593;-83
2022/07/29 05:51:28;;;;;;;2.73;2.60;;;23.90;56.50;;;;;;20763;6837;117576;-84
2022/07/29 05:53:53;;;;;;;2.90;2.80;;;23.70;57.00;;;;;;20558;6837;278856;-83
2022/07/29 05:56:19;;;;;;;3.67;3.57;;;23.80;56.00;;;;;;20543;6837;310571;-82
2022/07/29 05:58:45;;;;;;;4.00;3.70;;;24.00;56.50;;;;;;20559;6837;288740;-82
2022/07/29 06:01:11;;;;;;;4.07;3.87;;;24.20;56.80;;;;;;20529;6837;308626;-83
2022/07/29 06:03:37;;;;;;;3.70;3.50;;;24.40;56.20;;;;;;20574;6837;337806;-83
2022/07/29 06:06:02;;;;;;;4.40;4.20;;;24.50;56.10;;;;;;20550;6837;308565;-82
2022/07/29 06:08:28;;;;;;;3.75;3.65;;;24.60;55.60;;;;;;20769;6837;117594;-82
2022/07/29 06:10:54;;;;;;;4.37;3.93;;;24.00;57.00;;;;;;20744;6837;118194;-84
2022/07/29 06:13:19;;;;;;;4.40;4.20;;;23.90;56.90;;;;;;20552;6837;308918;-82
2022/07/29 06:15:45;;;;;;;4.33;4.03;;;24.00;57.50;;;;;;20770;6837;117791;-83
2022/07/29 06:18:11;;;;;;;4.07;3.80;;;23.80;57.90;;;;;;20764;6837;121584;-83
2022/07/29 06:20:37;;;;;;;3.93;3.60;;;23.40;58.90;;;;;;20776;6835;116407;-83
2022/07/29 06:23:04;;;;;;;3.55;3.35;;;23.40;58.90;;;;;;20528;6836;312925;-83
2022/07/29 06:25:30;;;;;;;3.40;3.20;;;23.70;58.10;;;;;;20770;6836;120609;-83
2022/07/29 06:27:57;;;;;;;3.70;3.40;;;23.70;58.00;;;;;;20765;6836;117317;-83
2022/07/29 06:30:22;;;;;;;3.60;3.30;;;23.60;58.30;;;;;;20765;6837;121986;-83
2022/07/29 06:32:49;;;;;;;3.00;2.90;;;23.50;58.90;;;;;;20750;6837;117211;-84
2022/07/29 06:35:14;;;;;;;3.83;3.20;;;23.50;58.90;;;;;;20580;6837;116695;-82
2022/07/29 06:37:40;;;;;;;3.60;3.40;;;23.70;59.60;;;;;;20553;6837;318027;-83
2022/07/29 06:42:51;;;;;;;3.03;2.83;;;24.80;58.20;;;;;;20767;6837;117318;-83
2022/07/29 06:45:17;;;;;;;3.73;3.40;;;25.30;58.30;;;;;;20790;6837;116554;-82
2022/07/29 06:47:42;;;;;;;3.70;3.40;;;25.60;57.50;;;;;;20579;6837;290939;-82
2022/07/29 06:50:11;;;;;;;3.70;3.50;;;26.40;53.80;;;;;;20574;6837;307576;-82
2022/07/29 06:52:34;;;;;;;3.83;3.60;;;27.30;50.40;;;;;;20565;6837;290632;-82
2022/07/29 06:54:59;;;;;;;3.70;3.47;;;27.90;49.10;;;;;;20563;6837;307122;-82
2022/07/29 06:57:26;;;;;;;3.87;3.67;;;29.00;46.90;;;;;;20554;6837;310824;-85
2022/07/29 06:59:51;;;;;;;3.73;3.43;;;29.00;46.90;;;;;;20787;6837;117304;-82
2022/07/29 07:02:16;;;;;;;4.13;3.47;;;29.20;48.50;;;;;;20802;6837;117466;-82
2022/07/29 07:04:43;;;;;;;4.97;3.60;;;29.10;49.00;;;;;;20782;6837;117094;-81
2022/07/29 07:07:09;;;;;;;3.37;3.10;;;29.00;49.60;;;;;;20762;6837;118153;-81
2022/07/29 07:09:34;;;;;;;3.40;3.20;;;28.90;49.70;;;;;;20801;6837;116959;-82
2022/07/29 07:12:01;;;;;;;3.85;3.50;;;28.90;50.10;;;;;;20748;6837;120805;-80
2022/07/29 07:14:27;;;;;;;4.33;3.67;;;28.80;50.00;;;;;;20758;6837;118135;-82
2022/07/29 07:16:52;;;;;;;3.90;3.70;;;28.60;50.00;;;;;;20560;6837;307002;-82
2022/07/29 07:19:19;;;;;;;3.93;3.63;;;28.80;48.40;;;;;;20752;6837;116570;-82
2022/07/29 07:21:43;;;;;;;4.20;3.78;;;28.80;49.10;;;;;;20557;6837;307874;-84
2022/07/29 07:24:09;;;;;;;3.83;3.47;;;28.90;47.90;;;;;;20768;6837;117913;-83
2022/07/29 07:26:35;;;;;;;3.80;3.60;;;28.60;48.60;;;;;;20549;6837;278077;-82
2022/07/29 07:29:00;;;;;;;4.33;3.83;;;28.50;48.00;;;;;;20763;6837;117415;-82
2022/07/29 07:31:26;;;;;;;5.35;3.90;;;28.30;49.10;;;;;;20564;6835;312419;-82
2022/07/29 07:33:53;;;;;;;3.65;3.45;;;28.20;49.10;;;;;;20779;6836;117130;-83
2022/07/29 07:36:17;;;;;;;3.80;3.60;;;28.20;49.50;;;;;;20559;6836;283362;-81
2022/07/29 07:38:42;;;;;;;4.00;3.70;;;28.30;48.90;;;;;;20559;6836;308017;-81
2022/07/29 07:41:08;;;;;;;3.75;3.55;;;28.50;47.60;;;;;;20562;6836;327519;-81
2022/07/29 07:43:33;;;;;;;3.47;3.27;;;28.70;48.00;;;;;;20580;6837;306603;-81
2022/07/29 07:46:03;;;;;;;3.40;3.20;;;28.90;47.50;;;;;;20586;6837;278745;-84
2022/07/29 07:48:29;;;;;;;3.80;3.50;;;29.00;47.10;;;;;;20556;6837;278758;-83
2022/07/29 07:50:55;;;;;;;3.50;3.20;;;29.10;46.40;;;;;;20533;6837;337168;-83
2022/07/29 07:53:20;;;;;;;3.67;3.43;;;29.20;47.10;;;;;;20547;6837;307704;-83
2022/07/29 07:55:46;;;;;;;3.90;3.60;;;29.40;47.00;;;;;;20563;6837;294734;-82
2022/07/29 07:58:11;;;;;;;3.43;3.23;;;29.50;46.20;;;;;;20557;6837;307165;-82
2022/07/29 08:00:37;;;;;;;3.63;3.33;;;29.60;46.30;;;;;;20553;6837;311126;-83
2022/07/29 08:03:02;;;;;;;3.80;3.60;;;29.80;45.30;;;;;;20533;6837;338023;-87
2022/07/29 08:05:28;;;;;;;3.57;3.37;;;30.00;46.60;;;;;;20756;6837;117937;-83
2022/07/29 08:07:55;;;;;;;3.78;3.47;;;30.00;46.80;;;;;;20548;6837;303057;-82
2022/07/29 08:13:06;;;;;;;3.07;2.90;;;30.10;47.20;;;;;;20738;6837;118727;-82
2022/07/29 08:15:31;;;;;;;3.80;3.53;;;29.90;47.60;;;;;;20745;6837;116912;-82
2022/07/29 08:17:58;;;;;;;4.00;3.77;;;29.80;48.40;;;;;;20760;6837;117345;-82
2022/07/29 08:20:24;;;;;;;3.97;3.67;;;29.70;48.30;;;;;;20553;6837;278973;-83
2022/07/29 08:22:52;;;;;;;3.80;3.60;;;30.00;45.80;;;;;;20536;6837;343657;-84
2022/07/29 08:25:20;;;;;;;3.50;3.20;;;30.50;45.30;;;;;;20761;6837;117441;-82
2022/07/29 08:27:42;;;;;;;3.87;3.47;;;30.50;46.40;;;;;;20558;6837;335451;-81
2022/07/29 08:30:11;;;;;;;5.50;3.37;;;30.60;45.10;;;;;;20792;6837;116268;-81
2022/07/29 08:32:37;;;;;;;3.63;3.33;;;30.60;45.00;;;;;;20776;6837;117580;-83
2022/07/29 08:35:03;;;;;;;4.47;3.72;;;30.50;45.80;;;;;;20534;6837;306741;-82
2022/07/29 08:37:28;;;;;;;4.05;3.75;;;30.70;44.70;;;;;;20591;6837;338128;-82
2022/07/29 08:39:54;;;;;;;3.70;3.40;;;31.00;43.60;;;;;;20803;6837;116353;-83
2022/07/29 08:42:21;;;;;;;4.10;3.80;;;31.00;44.70;;;;;;20601;6835;311216;-84
2022/07/29 08:44:47;;;;;;;5.83;3.53;;;31.10;45.20;;;;;;20798;6836;116165;-86
2022/07/29 08:47:15;;;;;;;4.05;3.75;;;31.10;44.60;;;;;;20526;6836;298687;-85
2022/07/29 08:49:41;;;;;;;6.13;3.57;;;31.30;43.00;;;;;;20765;6836;121016;-83
2022/07/29 08:52:06;;;;;;;4.23;3.80;;;31.20;43.70;;;;;;20552;6836;296714;-82
2022/07/29 08:54:32;;;;;;;4.07;3.37;;;31.40;41.50;;;;;;20772;6837;116638;-82
2022/07/29 08:56:59;;;;;;;4.12;3.80;;;31.40;42.00;;;;;;20546;6837;331312;-80
2022/07/29 08:59:24;;;;;;;4.50;4.20;;;31.50;40.90;;;;;;20763;6837;117449;-81
2022/07/29 09:01:50;;;;;;;3.70;3.40;;;31.50;41.90;;;;;;20758;6837;117546;-79
2022/07/29 09:04:15;;;;;;;3.97;3.67;;;31.40;42.60;;;;;;20754;6837;117286;-80
2022/07/29 09:06:42;;;;;;;5.47;3.77;;;31.20;43.00;;;;;;20776;6837;117869;-81
2022/07/29 09:09:07;;;;;;;4.60;4.20;;;31.10;42.80;;;;;;20524;6837;307098;-81
2022/07/29 09:11:33;;;;;;;3.93;3.63;;;31.40;39.80;;;;;;20771;6837;120436;-80
2022/07/29 09:13:59;;;;;;;5.00;3.80;;;31.60;40.50;;;;;;20768;6837;117232;-83
2022/07/29 09:16:25;;;;;;;5.10;4.15;;;31.80;39.00;;;;;;20555;6837;278127;-80
2022/07/29 09:18:50;;;;;;;4.20;3.90;;;31.80;39.00;;;;;;20507;6837;308940;-80
2022/07/29 09:24:09;;;;;;;4.63;4.13;;;32.20;39.20;;;;;;20544;6837;307745;-83
2022/07/29 09:26:41;;;;;;;4.80;4.40;;;32.30;37.10;;;;;;20534;6837;338421;-81
2022/07/29 09:29:07;;;;;;;4.22;3.92;;;32.50;37.10;;;;;;20532;6837;308816;-81
2022/07/29 09:31:33;;;;;;;4.10;3.80;;;32.70;39.10;;;;;;20746;6837;116623;-81
2022/07/29 09:34:00;;;;;;;4.47;4.10;;;32.70;39.60;;;;;;20750;6837;117507;-81
2022/07/29 09:36:26;;;;;;;4.40;4.07;;;32.50;39.70;;;;;;20535;6837;337710;-81
2022/07/29 09:38:59;;;;;;;4.47;4.23;;;32.50;38.00;;;;;;20533;6837;278109;-83
2022/07/29 09:41:24;;;;;;;4.30;3.90;;;32.60;37.50;;;;;;20530;6837;308090;-85
2022/07/29 09:43:53;;;;;;;4.33;4.03;;;32.80;37.00;;;;;;20583;6837;311256;-82
2022/07/29 09:46:20;;;;;;;4.67;4.37;;;32.90;37.70;;;;;;20743;6837;116819;-84
2022/07/29 09:48:45;;;;;;;4.60;4.20;;;32.80;38.40;;;;;;20756;6837;117591;-83
2022/07/29 09:51:19;;;;;;;5.00;4.50;;;32.60;37.80;;;;;;20430;6837;307197;-83
2022/07/29 09:53:44;;;;;;;4.57;3.93;;;32.50;37.80;;;;;;20554;6835;308509;-83
2022/07/29 09:56:10;;;;;;;4.17;3.87;;;32.70;36.70;;;;;;20760;6836;117249;-84
2022/07/29 09:58:35;;;;;;;4.87;3.87;;;32.60;38.00;;;;;;20756;6836;117714;-84
2022/07/29 10:01:03;;;;;;;4.37;4.00;;;32.30;38.70;;;;;;20757;6836;127119;-83
2022/07/29 10:03:29;;;;;;;4.40;4.10;;;32.10;39.00;;;;;;20549;6836;278023;-84
2022/07/29 10:06:04;;;;;;;4.90;4.50;;;32.30;38.00;;;;;;20543;6837;283254;-85
2022/07/29 10:08:31;;;;;;;4.57;4.27;;;32.60;36.70;;;;;;20537;6837;286298;-84
2022/07/29 10:10:55;;;;;;;4.43;3.90;;;32.80;38.50;;;;;;20535;6837;308573;-83
2022/07/29 10:13:21;;;;;;;4.57;4.20;;;33.10;36.70;;;;;;20391;6837;284296;-83
2022/07/29 10:15:50;;;;;;;4.33;4.03;;;33.30;36.60;;;;;;20521;6837;306551;-83
2022/07/29 10:18:13;;;;;;;5.70;3.83;;;33.30;36.60;;;;;;20717;6837;118258;-83
2022/07/29 10:20:38;;;;;;;4.32;4.00;;;33.20;37.30;;;;;;20532;6837;310953;-83
2022/07/29 10:23:04;;;;;;;5.83;4.20;;;33.20;33.60;;;;;;20736;6837;116961;-83
2022/07/29 10:25:30;;;;;;;4.20;3.90;;;33.20;35.60;;;;;;20707;6837;117565;-83
2022/07/29 10:27:55;;;;;;;4.13;3.83;;;33.10;35.70;;;;;;20519;6837;284685;-81
2022/07/29 10:30:21;;;;;;;4.30;3.90;;;33.20;34.40;;;;;;20549;6837;278033;-83
2022/07/29 10:33:20;;;;;;;4.50;4.13;;;33.40;36.40;;;;;;20755;6837;116505;-84
2022/07/29 10:36:12;;;;;;;3.93;3.53;;;33.40;36.10;;;;;;20724;6837;117681;-85
2022/07/29 10:38:55;;;;;;;4.30;4.00;;;33.00;36.60;;;;;;20740;6837;117424;-83
2022/07/29 10:41:45;;;;;;;5.43;4.63;;;32.70;36.60;;;;;;20524;6837;118010;-85
2022/07/29 10:44:09;;;;;;;3.92;3.60;;;32.60;34.70;;;;;;20517;6837;341330;-83
2022/07/29 10:46:36;;;;;;;4.45;4.18;;;32.50;34.60;;;;;;20525;6837;344665;-84
2022/07/29 10:49:19;;;;;;;4.60;3.73;;;32.80;34.50;;;;;;20519;6837;278768;-85
2022/07/29 10:51:57;;;;;;;4.27;3.87;;;33.00;33.60;;;;;;20551;6837;337613;-85
2022/07/29 10:54:42;;;;;;;4.20;3.80;;;33.20;33.90;;;;;;20518;6837;278390;-86
2022/07/29 10:57:28;;;;;;;4.10;3.80;;;33.30;33.60;;;;;;20503;6837;277683;-84
2022/07/29 11:00:09;;;;;;;4.20;3.92;;;33.40;33.30;;;;;;20539;6837;319287;-83
2022/07/29 11:02:35;;;;;;;5.93;3.90;;;33.40;33.40;;;;;;20738;6837;117682;-84
2022/07/29 11:05:01;;;;;;;4.10;3.77;;;33.20;34.30;;;;;;20504;6835;281365;-84
2022/07/29 11:07:26;;;;;;;3.90;3.60;;;33.10;31.60;;;;;;20719;6836;121167;-84
2022/07/29 11:10:11;;;;;;;4.47;3.90;;;32.90;33.50;;;;;;20551;6836;336291;-85
2022/07/29 11:12:43;;;;;;;5.03;3.80;;;32.90;33.50;;;;;;20556;6836;278158;-85
2022/07/29 11:15:12;;;;;;;5.47;3.87;;;33.10;34.40;;;;;;20729;6836;117536;-83
2022/07/29 11:17:56;;;;;;;3.70;3.50;;;32.90;35.00;;;;;;20722;6837;118635;-85
2022/07/29 11:20:36;;;;;;;5.90;3.77;;;32.60;35.10;;;;;;20546;6837;282705;-84
2022/07/29 11:23:31;;;;;;;4.03;3.80;;;32.70;34.00;;;;;;20509;6837;312906;-85
2022/07/29 11:26:09;;;;;;;3.83;3.63;;;33.00;33.50;;;;;;20725;6837;117752;-84
2022/07/29 11:28:34;;;;;;;4.30;3.73;;;32.90;35.10;;;;;;20534;6837;311958;-84
2022/07/29 11:31:01;;;;;;;5.13;3.83;;;32.80;34.70;;;;;;20710;6837;118411;-85
2022/07/29 11:33:26;;;;;;;4.23;3.80;;;32.80;34.60;;;;;;20537;6837;308572;-85
2022/07/29 11:36:10;;;;;;;4.57;3.80;;;32.10;34.80;;;;;;20736;6837;117411;-85
2022/07/29 11:38:36;;;;;;;3.67;3.30;;;32.10;34.80;;;;;;20489;6837;341176;-85
2022/07/29 11:41:12;;;;;;;3.50;3.10;;;30.90;36.70;;;;;;20751;6837;118415;-85
2022/07/29 11:43:48;;;;;;;3.50;3.30;;;30.90;36.70;;;;;;20767;6837;117160;-85
2022/07/29 11:46:14;;;;;;;3.55;3.35;;;30.30;37.80;;;;;;20518;6837;311042;-85
2022/07/29 11:48:42;;;;;;;4.13;3.60;;;30.20;37.20;;;;;;20763;6837;116871;-83
2022/07/29 11:51:08;;;;;;;5.63;3.80;;;29.90;38.20;;;;;;20709;6837;117949;-84
2022/07/29 11:53:34;;;;;;;4.27;3.97;;;29.90;40.00;;;;;;20509;6837;307143;-84
2022/07/29 11:56:00;;;;;;;4.27;3.87;;;29.90;40.00;;;;;;20539;6837;308498;-85
2022/07/29 11:58:26;;;;;;;4.12;3.72;;;30.40;40.90;;;;;;20743;6837;117749;-85
2022/07/29 12:00:51;;;;;;;4.83;4.23;;;30.50;41.00;;;;;;20708;6837;121716;-86
2022/07/29 12:03:17;;;;;;;4.87;4.07;;;30.30;41.10;;;;;;20750;6837;121373;-84
2022/07/29 12:05:42;;;;;;;5.00;4.50;;;30.00;41.70;;;;;;20508;6837;308066;-86
2022/07/29 12:08:16;;;;;;;4.63;4.23;;;30.20;42.10;;;;;;20747;6837;117349;-85
2022/07/29 12:10:40;;;;;;;5.18;4.80;;;30.30;42.40;;;;;;20535;6837;278223;-85
2022/07/29 12:13:06;;;;;;;4.60;4.30;;;30.40;41.50;;;;;;20525;6837;312004;-86
2022/07/29 12:15:31;;;;;;;6.17;4.50;;;30.60;41.20;;;;;;20541;6837;308074;-85
2022/07/29 12:17:58;;;;;;;5.10;4.70;;;30.80;40.80;;;;;;20548;6835;307776;-85
2022/07/29 12:20:24;;;;;;;4.70;4.40;;;30.90;40.70;;;;;;20550;6836;311458;-86
2022/07/29 12:22:49;;;;;;;4.50;4.20;;;30.90;39.70;;;;;;20514;6836;341859;-85
2022/07/29 12:25:16;;;;;;;4.63;3.40;;;30.80;39.00;;;;;;20573;6836;117578;-84
2022/07/29 12:27:41;;;;;;;4.10;3.80;;;30.50;40.10;;;;;;20537;6836;278049;-87
2022/07/29 12:30:06;;;;;;;3.90;3.60;;;30.40;40.10;;;;;;20747;6837;117188;-87
2022/07/29 12:32:35;;;;;;;3.70;3.50;;;30.20;40.80;;;;;;20507;6837;312225;-83
2022/07/29 12:35:07;;;;;;;3.43;3.23;;;30.20;39.90;;;;;;20705;6837;117853;-86
2022/07/29 12:37:32;;;;;;;3.17;2.97;;;30.00;40.00;;;;;;20558;6837;117462;-84
2022/07/29 12:39:58;;;;;;;3.50;3.30;;;29.60;41.00;;;;;;20540;6837;335950;-85
2022/07/29 12:42:24;;;;;;;3.40;3.17;;;29.80;40.80;;;;;;20554;6837;337804;-84
2022/07/29 12:44:50;;;;;;;3.40;3.20;;;29.80;40.80;;;;;;20528;6837;308689;-86
2022/07/29 12:47:15;;;;;;;3.60;3.30;;;29.90;40.30;;;;;;20499;6852;308235;-84
2022/07/29 12:49:41;;;;;;;3.20;3.00;;;30.00;40.10;;;;;;20539;6839;278178;-84